Time;durP1;ratioP1;P1;durP2;ratioP2;P2;SDS_P1;SDS_P2;PMS_P1;PMS_P2;Temp;Humidity;BMP_temperature;BMP_pressure;BME280_temperature;BME280_humidity;BME280_pressure;Samples;Min_cycle;Max_cycle;Signal;HPM_P1;HPM_P2
2023/03/24 00:03:57;;;;;;;;;;;;;;;12.55;63.65;97857.13;104803;1311;122981;-83
2023/03/24 00:07:32;;;;;;;;;;;;;;;12.53;64.05;97855.37;105563;1288;24647;-88
2023/03/24 00:11:03;;;;;;;;;;;;;;;12.51;63.95;97852.20;102029;1296;5331793;-84
2023/03/24 00:14:15;;;;;;;;;;;;;;;;;;;;;
2023/03/24 00:17:58;;;;;;;;;;;;;;;12.50;64.08;97855.91;105927;1284;22582;-83
2023/03/24 00:21:14;;;;;;;;;;;;;;;;;;;;;
2023/03/24 00:27:58;;;;;;;;;;;;;;;12.48;64.43;97855.32;104735;1295;123242;-86
2023/03/24 00:31:52;;;;;;;;;;;;;;;12.50;64.32;97852.85;104135;1320;23202;-83
2023/03/24 00:34:53;;;;;;;;;;;;;;;12.51;64.49;97855.58;103687;1319;25765;-84
2023/03/24 00:38:23;;;;;;;;;;;;;;;;;;;;;
2023/03/24 00:41:46;;;;;;;;;;;;;;;;;;;;;
2023/03/24 00:52:50;;;;;;;;;;;;;;;12.52;64.24;97840.14;105394;1306;22531;-82
2023/03/24 00:59:47;;;;;;;;;;;;;;;12.52;64.33;97833.52;104045;1302;22544;-83
2023/03/24 01:13:55;;;;;;;;;;;;;;;;;;;;;
2023/03/24 01:17:52;;;;;;;;;;;;;;;12.62;63.84;97821.45;106381;1295;22582;-85
2023/03/24 01:32:18;;;;;;;;;;;;;;;12.66;63.41;97807.52;107042;1300;22609;-86
2023/03/24 01:35:28;;;;;;;;;;;;;;;12.67;63.25;97801.93;105749;1311;26516;-82
2023/03/24 01:38:59;;;;;;;;;;;;;;;;;;;;;
2023/03/24 01:46:37;;;;;;;;;;;;;;;12.69;63.46;97813.58;104976;1308;544761;-85
2023/03/24 02:08:28;;;;;;;;;;;;;;;12.51;63.86;97796.33;104985;1311;545299;-85
2023/03/24 02:11:57;;;;;;;;;;;;;;;12.48;63.97;97796.76;106885;1300;25988;-85
2023/03/24 02:15:25;;;;;;;;;;;;;;;12.47;64.06;97797.14;106195;1305;123062;-85
2023/03/24 02:18:33;;;;;;;;;;;;;;;12.46;63.95;97792.92;105774;1304;22550;-86
2023/03/24 02:25:56;;;;;;;;;;;;;;;;;;;;;
2023/03/24 02:29:35;;;;;;;;;;;;;;;12.40;64.46;97793.71;105769;1299;22524;-88
2023/03/24 02:33:21;;;;;;;;;;;;;;;12.38;64.26;97786.27;105639;1310;122436;-84
2023/03/24 02:36:53;;;;;;;;;;;;;;;12.36;64.29;97785.91;105750;1317;22636;-85
2023/03/24 02:47:10;;;;;;;;;;;;;;;12.36;64.20;97781.09;105858;1313;22558;-87
2023/03/24 02:55:08;;;;;;;;;;;;;;;12.38;64.50;97777.92;105431;1298;544498;-83
2023/03/24 02:58:35;;;;;;;;;;;;;;;12.38;64.35;97775.61;107802;1291;122171;-86
2023/03/24 03:01:40;;;;;;;;;;;;;;;12.39;64.75;97770.92;108684;1288;22488;-84
2023/03/24 03:05:38;;;;;;;;;;;;;;;12.39;64.68;97765.68;107659;1278;22806;-83
2023/03/24 03:15:59;;;;;;;;;;;;;;;12.41;64.57;97752.36;106014;1295;123790;-87
2023/03/24 03:19:26;;;;;;;;;;;;;;;12.41;64.41;97745.36;105786;1318;24571;-87
2023/03/24 03:30:30;;;;;;;;;;;;;;;12.46;64.43;97746.29;105856;1300;557046;-87
2023/03/24 03:34:08;;;;;;;;;;;;;;;;;;;;;
2023/03/24 03:41:14;;;;;;;;;;;;;;;12.43;64.59;97756.89;106330;1293;123010;-85
2023/03/24 03:44:49;;;;;;;;;;;;;;;12.40;64.72;97759.57;102276;1314;5473816;-85
2023/03/24 03:51:56;;;;;;;;;;;;;;;;;;;;;
2023/03/24 03:58:52;;;;;;;;;;;;;;;12.25;65.76;97752.64;105327;1304;544392;-85
2023/03/24 04:02:24;;;;;;;;;;;;;;;;;;;;;
2023/03/24 04:05:36;;;;;;;;;;;;;;;;;;;;;
2023/03/24 04:09:10;;;;;;;;;;;;;;;;;;;;;
2023/03/24 04:12:48;;;;;;;;;;;;;;;12.05;66.67;97732.11;102311;1309;5483309;-82
2023/03/24 04:16:49;;;;;;;;;;;;;;;;;;;;;
2023/03/24 04:20:32;;;;;;;;;;;;;;;12.05;66.08;97736.53;105378;1302;22543;-83
2023/03/24 04:23:51;;;;;;;;;;;;;;;;;;;;;
2023/03/24 04:27:35;;;;;;;;;;;;;;;;;;;;;
2023/03/24 04:41:42;;;;;;;;;;;;;;;12.12;65.93;97738.08;104779;1313;123746;-83
2023/03/24 04:48:49;;;;;;;;;;;;;;;;;;;;;
2023/03/24 04:51:31;;;;;;;;;;;;;;;;;;;;;
2023/03/24 04:55:31;;;;;;;;;;;;;;;12.20;66.38;97741.61;105177;1321;22583;-85
2023/03/24 04:58:57;;;;;;;;;;;;;;;12.20;66.18;97742.92;104826;1327;124062;-83
2023/03/24 05:02:04;;;;;;;;;;;;;;;12.21;67.23;97746.64;104035;1320;24045;-82
2023/03/24 05:13:04;;;;;;;;;;;;;;;12.21;67.19;97751.55;107438;1299;22490;-85
2023/03/24 05:17:10;;;;;;;;;;;;;;;12.22;67.59;97759.47;105741;1313;123662;-86
2023/03/24 05:35:13;;;;;;;;;;;;;;;12.20;69.44;97765.80;106199;1310;123879;-89
2023/03/24 05:38:40;;;;;;;;;;;;;;;12.20;70.38;97767.50;105988;1311;22843;-87
2023/03/24 05:41:42;;;;;;;;;;;;;;;12.19;70.95;97765.69;105549;1300;123488;-85
2023/03/24 05:48:38;;;;;;;;;;;;;;;12.16;71.88;97763.46;104026;1333;25396;-84
2023/03/24 05:52:15;;;;;;;;;;;;;;;12.13;71.97;97770.43;103449;1320;124810;-85
2023/03/24 05:56:14;;;;;;;;;;;;;;;12.13;72.36;97764.15;104754;1315;545842;-88
2023/03/24 05:59:53;;;;;;;;;;;;;;;11.99;73.58;97766.61;106418;1299;22535;-83
2023/03/24 06:03:43;;;;;;;;;;;;;;;11.90;74.09;97770.23;106596;1296;22688;-83
2023/03/24 06:06:54;;;;;;;;;;;;;;;;;;;;;
2023/03/24 06:13:59;;;;;;;;;;;;;;;11.85;75.43;97769.77;105117;1302;22628;-84
2023/03/24 06:23:57;;;;;;;;;;;;;;;;;;;;;
2023/03/24 06:35:13;;;;;;;;;;;;;;;12.12;76.24;97769.29;104158;1320;544201;-83
2023/03/24 06:38:40;;;;;;;;;;;;;;;12.16;76.17;97768.65;106274;1298;22495;-82
2023/03/24 06:45:12;;;;;;;;;;;;;;;;;;;;;
2023/03/24 06:48:39;;;;;;;;;;;;;;;;;;;;;
2023/03/24 06:58:53;;;;;;;;;;;;;;;12.52;75.33;97749.95;106157;1299;126037;-83
2023/03/24 07:02:32;;;;;;;;;;;;;;;;;;;;;
2023/03/24 07:06:17;;;;;;;;;;;;;;;12.69;75.21;97751.45;106445;1277;124222;-83
2023/03/24 07:09:44;;;;;;;;;;;;;;;12.79;75.02;97744.98;106023;1298;22646;-82
2023/03/24 07:13:11;;;;;;;;;;;;;;;12.89;75.10;97746.59;105756;1303;22533;-82
2023/03/24 07:16:30;;;;;;;;;;;;;;;13.01;75.34;97747.09;105093;1291;124593;-83
2023/03/24 07:19:32;;;;;;;;;;;;;;;13.14;75.37;97748.55;105176;1307;22596;-82
2023/03/24 07:23:02;;;;;;;;;;;;;;;13.28;75.36;97750.07;104489;1314;124016;-87
2023/03/24 07:26:55;;;;;;;;;;;;;;;13.45;75.12;97747.77;104638;1298;22595;-84
2023/03/24 07:33:51;;;;;;;;;;;;;;;13.80;74.58;97746.65;104600;1311;24215;-83
2023/03/24 07:37:18;;;;;;;;;;;;;;;13.94;74.22;97738.73;104720;1305;22662;-85
2023/03/24 07:40:48;;;;;;;;;;;;;;;14.05;73.46;97744.83;104390;1314;124327;-84
2023/03/24 07:43:40;;;;;;;;;;;;;;;;;;;;;
2023/03/24 07:47:33;;;;;;;;;;;;;;;14.20;72.28;97737.15;104670;1306;124033;-85
2023/03/24 07:51:01;;;;;;;;;;;;;;;14.32;71.92;97733.77;105023;1311;25738;-86
2023/03/24 07:54:02;;;;;;;;;;;;;;;14.44;71.67;97732.30;105036;1308;124215;-83
2023/03/24 07:57:35;;;;;;;;;;;;;;;;;;;;;
2023/03/24 08:04:37;;;;;;;;;;;;;;;14.77;70.56;97708.31;105954;1303;123074;-88
2023/03/24 08:09:16;;;;;;;;;;;;;;;14.90;70.44;97697.81;104203;1313;544407;-85
2023/03/24 08:12:45;;;;;;;;;;;;;;;15.00;70.60;97693.85;105436;1297;123627;-85
2023/03/24 08:16:11;;;;;;;;;;;;;;;15.10;70.24;97689.34;104792;1308;22565;-87
2023/03/24 08:19:30;;;;;;;;;;;;;;;;;;;;;
2023/03/24 08:23:15;;;;;;;;;;;;;;;15.31;69.85;97683.21;99990;1326;5456009;-86
2023/03/24 08:29:58;;;;;;;;;;;;;;;;;;;;;
2023/03/24 08:37:43;;;;;;;;;;;;;;;15.81;68.24;97678.61;104342;1313;544962;-83
2023/03/24 08:41:09;;;;;;;;;;;;;;;15.95;68.10;97679.17;107111;1295;124036;-85
2023/03/24 08:44:13;;;;;;;;;;;;;;;;;;;;;
2023/03/24 08:48:10;;;;;;;;;;;;;;;16.28;67.30;97674.06;106535;1290;124140;-85
2023/03/24 08:54:30;;;;;;;;;;;;;;;;;;;;;
2023/03/24 08:57:56;;;;;;;;;;;;;;;;;;;;;
2023/03/24 09:01:23;;;;;;;;;;;;;;;16.76;65.10;97656.52;104880;1312;25494;-85
2023/03/24 09:04:44;;;;;;;;;;;;;;;;;;;;;
2023/03/24 09:08:03;;;;;;;;;;;;;;;;;;;;;
2023/03/24 09:11:28;;;;;;;;;;;;;;;;;;;;;
2023/03/24 09:22:55;;;;;;;;;;;;;;;17.82;60.62;97626.58;107171;1291;123411;-86
2023/03/24 09:30:16;;;;;;;;;;;;;;;17.96;59.81;97617.85;104912;1299;123699;-87
2023/03/24 09:33:29;;;;;;;;;;;;;;;;;;;;;
2023/03/24 09:36:48;;;;;;;;;;;;;;;18.27;59.20;97612.26;103757;1320;123301;-86
2023/03/24 09:44:26;;;;;;;;;;;;;;;18.67;58.10;97587.69;103878;1300;544506;-90
2023/03/24 09:48:16;;;;;;;;;;;;;;;;;;;;;
2023/03/24 09:51:34;;;;;;;;;;;;;;;;;;;;;
2023/03/24 09:55:01;;;;;;;;;;;;;;;;;;;;;
2023/03/24 10:02:11;;;;;;;;;;;;;;;19.21;55.36;97566.23;106399;1292;25465;-85
2023/03/24 10:08:34;;;;;;;;;;;;;;;19.54;54.72;97555.13;106929;1289;25428;-87
2023/03/24 10:15:31;;;;;;;;;;;;;;;;;;;;;
2023/03/24 10:19:35;;;;;;;;;;;;;;;20.12;53.09;97542.39;107088;1292;123216;-85
2023/03/24 10:22:30;;;;;;;;;;;;;;;;;;;;;
2023/03/24 10:29:11;;;;;;;;;;;;;;;;;;;;;
2023/03/24 10:32:58;;;;;;;;;;;;;;;20.88;48.76;97509.37;106516;1297;25266;-87
2023/03/24 10:36:05;;;;;;;;;;;;;;;;;;;;;
2023/03/24 10:42:26;;;;;;;;;;;;;;;;;;;;;
2023/03/24 10:46:19;;;;;;;;;;;;;;;21.27;47.50;97504.29;105684;1282;23880;-86
2023/03/24 10:49:19;;;;;;;;;;;;;;;;;;;;;
2023/03/24 10:52:29;;;;;;;;;;;;;;;;;;;;;
2023/03/24 10:56:16;;;;;;;;;;;;;;;21.58;44.34;97495.14;105189;1308;22582;-89
2023/03/24 10:59:15;;;;;;;;;;;;;;;;;;;;;
2023/03/24 11:02:37;;;;;;;;;;;;;;;;;;;;;
2023/03/24 11:06:02;;;;;;;;;;;;;;;;;;;;;
2023/03/24 11:09:31;;;;;;;;;;;;;;;21.66;43.65;97488.54;104948;1309;23483;-86
2023/03/24 11:12:56;;;;;;;;;;;;;;;;;;;;;
2023/03/24 11:16:33;;;;;;;;;;;;;;;21.82;42.83;97484.89;104350;1295;22594;-87
2023/03/24 11:19:41;;;;;;;;;;;;;;;;;;;;;
2023/03/24 11:22:48;;;;;;;;;;;;;;;;;;;;;
2023/03/24 11:26:08;;;;;;;;;;;;;;;21.92;43.06;97467.11;103737;1301;22555;-88
2023/03/24 11:29:30;;;;;;;;;;;;;;;;;;;;;
2023/03/24 11:32:55;;;;;;;;;;;;;;;22.12;43.15;97447.73;103665;1324;22594;-88
2023/03/24 11:36:08;;;;;;;;;;;;;;;;;;;;;
2023/03/24 11:39:53;;;;;;;;;;;;;;;22.38;40.05;97442.55;104136;1297;546958;-82
2023/03/24 11:43:40;;;;;;;;;;;;;;;22.36;39.88;97440.20;106102;1291;123215;-87
2023/03/24 11:47:20;;;;;;;;;;;;;;;22.40;40.17;97428.99;106376;1292;22529;-82
2023/03/24 11:50:34;;;;;;;;;;;;;;;;;;;;;
2023/03/24 11:53:46;;;;;;;;;;;;;;;;;;;;;
2023/03/24 11:57:34;;;;;;;;;;;;;;;22.40;40.06;97410.28;105889;1298;25394;-89
2023/03/24 12:04:15;;;;;;;;;;;;;;;22.47;39.29;97401.23;105108;1302;22571;-88
2023/03/24 12:07:45;;;;;;;;;;;;;;;;;;;;;
2023/03/24 12:14:45;;;;;;;;;;;;;;;;;;;;;
2023/03/24 12:18:13;;;;;;;;;;;;;;;22.55;37.22;97392.36;105299;1308;124078;-86
2023/03/24 12:21:55;;;;;;;;;;;;;;;22.43;36.76;97391.60;104818;1292;24380;-88
2023/03/24 12:24:56;;;;;;;;;;;;;;;;;;;;;
2023/03/24 12:28:07;;;;;;;;;;;;;;;22.23;36.55;97386.02;105097;1306;22543;-84
2023/03/24 12:32:04;;;;;;;;;;;;;;;22.16;37.28;97390.58;105415;1304;123818;-86
2023/03/24 12:39:12;;;;;;;;;;;;;;;22.07;37.96;97378.23;105361;1303;22633;-87
2023/03/24 12:42:12;;;;;;;;;;;;;;;;;;;;;
2023/03/24 12:46:17;;;;;;;;;;;;;;;21.97;38.05;97383.64;104853;1303;22632;-87
2023/03/24 12:49:47;;;;;;;;;;;;;;;21.95;38.14;97382.13;104817;1307;123373;-91
2023/03/24 12:52:41;;;;;;;;;;;;;;;;;;;;;
2023/03/24 13:00:05;;;;;;;;;;;;;;;21.93;37.25;97371.52;104079;1316;123566;-87
2023/03/24 13:03:00;;;;;;;;;;;;;;;;;;;;;
2023/03/24 13:06:44;;;;;;;;;;;;;;;21.72;37.05;97365.95;104252;1315;123333;-87
2023/03/24 13:13:18;;;;;;;;;;;;;;;21.51;37.50;97363.11;104642;1292;123363;-87
2023/03/24 13:17:03;;;;;;;;;;;;;;;;;;;;;
2023/03/24 13:20:44;;;;;;;;;;;;;;;21.35;37.52;97363.10;104867;1311;22587;-88
2023/03/24 13:24:03;;;;;;;;;;;;;;;21.28;37.67;97365.45;104346;1304;123927;-84
2023/03/24 13:27:38;;;;;;;;;;;;;;;21.20;37.68;97357.42;104847;1316;23073;-86
2023/03/24 13:30:56;;;;;;;;;;;;;;;21.09;37.47;97351.65;104400;1317;123450;-86
2023/03/24 13:34:26;;;;;;;;;;;;;;;;;;;;;
2023/03/24 13:38:07;;;;;;;;;;;;;;;20.93;38.24;97346.43;104703;1311;123541;-87
2023/03/24 13:41:33;;;;;;;;;;;;;;;20.86;38.41;97346.57;104633;1315;22750;-86
2023/03/24 13:45:02;;;;;;;;;;;;;;;20.78;38.93;97341.69;104520;1301;22773;-85
2023/03/24 13:48:03;;;;;;;;;;;;;;;;;;;;;
2023/03/24 13:55:19;;;;;;;;;;;;;;;;;;;;;
2023/03/24 13:58:37;;;;;;;;;;;;;;;;;;;;;
2023/03/24 14:02:46;;;;;;;;;;;;;;;20.48;41.52;97335.92;105076;1305;22546;-91
2023/03/24 14:05:37;;;;;;;;;;;;;;;;;;;;;
2023/03/24 14:09:20;;;;;;;;;;;;;;;;;;;;;
2023/03/24 14:12:43;;;;;;;;;;;;;;;;;;;;;
2023/03/24 14:20:16;;;;;;;;;;;;;;;19.90;44.34;97329.42;105516;1307;123278;-89
2023/03/24 14:23:27;;;;;;;;;;;;;;;;;;;;;
2023/03/24 14:26:40;;;;;;;;;;;;;;;;;;;;;
2023/03/24 14:30:21;;;;;;;;;;;;;;;19.50;45.71;97318.85;105188;1311;124503;-90
2023/03/24 14:33:33;;;;;;;;;;;;;;;;;;;;;
2023/03/24 14:43:47;;;;;;;;;;;;;;;;;;;;;
2023/03/24 14:47:41;;;;;;;;;;;;;;;18.87;47.48;97295.41;104858;1306;22563;-85
2023/03/24 14:51:00;;;;;;;;;;;;;;;18.76;47.64;97295.77;104924;1313;22628;-89
2023/03/24 14:54:19;;;;;;;;;;;;;;;18.69;47.92;97288.27;104272;1318;124162;-86
2023/03/24 14:57:49;;;;;;;;;;;;;;;18.63;48.26;97290.85;104675;1312;22579;-84
2023/03/24 15:01:03;;;;;;;;;;;;;;;;;;;;;
2023/03/24 15:04:38;;;;;;;;;;;;;;;18.56;48.70;97277.01;105071;1308;24457;-85
2023/03/24 15:08:27;;;;;;;;;;;;;;;18.53;48.63;97270.59;105785;1306;124176;-85
2023/03/24 15:11:54;;;;;;;;;;;;;;;18.50;48.70;97269.73;106081;1298;22548;-85
2023/03/24 15:14:55;;;;;;;;;;;;;;;;;;;;;
2023/03/24 15:18:22;;;;;;;;;;;;;;;;;;;;;
2023/03/24 15:22:27;;;;;;;;;;;;;;;18.48;48.41;97255.32;106261;1298;26764;-87
2023/03/24 15:25:58;;;;;;;;;;;;;;;18.48;47.72;97253.56;105478;1302;123529;-88
2023/03/24 15:28:58;;;;;;;;;;;;;;;;;;;;;
2023/03/24 15:36:13;;;;;;;;;;;;;;;;;;;;;
2023/03/24 15:39:54;;;;;;;;;;;;;;;18.48;47.59;97251.20;105408;1292;24303;-89
2023/03/24 15:43:21;;;;;;;;;;;;;;;18.45;47.59;97251.56;104980;1308;123994;-84
2023/03/24 15:46:50;;;;;;;;;;;;;;;18.41;47.52;97252.73;104646;1317;22587;-85
2023/03/24 15:50:30;;;;;;;;;;;;;;;18.37;47.91;97253.91;104170;1307;123868;-86
2023/03/24 15:53:23;;;;;;;;;;;;;;;;;;;;;
2023/03/24 16:08:03;;;;;;;;;;;;;;;18.06;48.65;97260.91;106587;1296;123503;-86
2023/03/24 16:11:30;;;;;;;;;;;;;;;18.00;48.91;97255.30;105621;1289;22579;-85
2023/03/24 16:14:46;;;;;;;;;;;;;;;;;;;;;
2023/03/24 16:18:40;;;;;;;;;;;;;;;17.90;49.41;97257.02;104281;1321;123778;-86
2023/03/24 16:22:06;;;;;;;;;;;;;;;17.83;49.80;97256.95;104102;1318;22573;-85
2023/03/24 16:25:35;;;;;;;;;;;;;;;17.76;49.69;97261.30;103964;1323;123136;-86
2023/03/24 16:28:45;;;;;;;;;;;;;;;;;;;;;
2023/03/24 16:32:26;;;;;;;;;;;;;;;17.63;50.16;97266.59;103036;1323;123297;-84
2023/03/24 16:42:48;;;;;;;;;;;;;;;;;;;;;
2023/03/24 16:46:40;;;;;;;;;;;;;;;17.40;49.74;97293.83;105152;1311;24700;-83
2023/03/24 16:50:04;;;;;;;;;;;;;;;17.36;49.99;97297.95;105200;1295;123049;-83
2023/03/24 16:53:30;;;;;;;;;;;;;;;17.31;50.97;97304.93;101177;1311;5528619;-84
2023/03/24 16:56:33;;;;;;;;;;;;;;;17.26;51.12;97314.05;104749;1312;124045;-83
2023/03/24 17:00:31;;;;;;;;;;;;;;;17.19;50.92;97322.88;104533;1315;22633;-83
2023/03/24 17:03:24;;;;;;;;;;;;;;;;;;;;;
2023/03/24 17:07:09;;;;;;;;;;;;;;;17.11;50.25;97329.23;104364;1320;123501;-84
2023/03/24 17:14:03;;;;;;;;;;;;;;;;;;;;;
2023/03/24 17:18:00;;;;;;;;;;;;;;;16.90;52.19;97342.32;106423;1300;22558;-85
2023/03/24 17:28:47;;;;;;;;;;;;;;;;;;;;;
2023/03/24 17:32:38;;;;;;;;;;;;;;;16.61;52.69;97338.27;104847;1313;123276;-85
2023/03/24 17:39:29;;;;;;;;;;;;;;;;;;;;;
2023/03/24 17:42:42;;;;;;;;;;;;;;;;;;;;;
2023/03/24 17:46:37;;;;;;;;;;;;;;;16.41;53.21;97351.22;106087;1299;22615;-86
2023/03/24 17:49:41;;;;;;;;;;;;;;;16.37;53.49;97350.82;104891;1312;122995;-86
2023/03/24 17:56:30;;;;;;;;;;;;;;;16.24;55.08;97351.13;104276;1314;123658;-86
2023/03/24 18:07:21;;;;;;;;;;;;;;;15.91;56.81;97342.89;103997;1327;123526;-85
2023/03/24 18:10:23;;;;;;;;;;;;;;;15.81;57.23;97348.15;104288;1309;22581;-85
2023/03/24 18:17:43;;;;;;;;;;;;;;;;;;;;;
2023/03/24 18:24:56;;;;;;;;;;;;;;;;;;;;;
2023/03/24 18:28:12;;;;;;;;;;;;;;;15.35;61.16;97368.37;105997;1286;22648;-86
2023/03/24 18:35:07;;;;;;;;;;;;;;;15.06;63.44;97359.46;104381;1315;24295;-85
2023/03/24 18:38:35;;;;;;;;;;;;;;;14.92;64.33;97360.75;103852;1326;123648;-84
2023/03/24 18:49:06;;;;;;;;;;;;;;;14.50;66.52;97347.70;106802;1286;138342;-86
2023/03/24 18:52:40;;;;;;;;;;;;;;;14.39;67.49;97352.47;106714;1293;22579;-86
2023/03/24 18:56:35;;;;;;;;;;;;;;;14.28;68.23;97377.88;107181;1280;123474;-84
2023/03/24 18:59:38;;;;;;;;;;;;;;;14.16;68.56;97388.02;102842;1295;5481990;-85
2023/03/24 19:03:37;;;;;;;;;;;;;;;14.08;68.90;97392.19;106259;1299;124424;-84
2023/03/24 19:10:04;;;;;;;;;;;;;;;13.93;69.69;97392.55;105092;1311;23817;-86
2023/03/24 19:13:48;;;;;;;;;;;;;;;;;;;;;
2023/03/24 19:17:09;;;;;;;;;;;;;;;;;;;;;
2023/03/24 19:23:43;;;;;;;;;;;;;;;;;;;;;
2023/03/24 19:27:55;;;;;;;;;;;;;;;;;;;;;
2023/03/24 19:31:39;;;;;;;;;;;;;;;13.52;71.66;97364.30;105897;1304;124741;-85
2023/03/24 19:35:07;;;;;;;;;;;;;;;13.47;72.05;97345.44;105612;1308;22543;-84
2023/03/24 19:41:37;;;;;;;;;;;;;;;13.38;72.69;97344.23;100794;1318;5456623;-85
2023/03/24 19:45:30;;;;;;;;;;;;;;;13.32;73.20;97357.13;104394;1315;124407;-86
2023/03/24 19:48:56;;;;;;;;;;;;;;;13.26;73.69;97352.63;104588;1309;22511;-88
2023/03/24 19:52:25;;;;;;;;;;;;;;;13.18;74.16;97348.84;103958;1324;22555;-84
2023/03/24 19:55:36;;;;;;;;;;;;;;;;;;;;;
2023/03/24 20:02:21;;;;;;;;;;;;;;;12.99;75.26;97357.10;102304;1340;124053;-86
2023/03/24 20:06:45;;;;;;;;;;;;;;;12.95;75.21;97353.70;104036;1301;544405;-84
2023/03/24 20:10:15;;;;;;;;;;;;;;;12.88;75.36;97353.55;106811;1294;24258;-85
2023/03/24 20:13:36;;;;;;;;;;;;;;;12.84;75.38;97346.98;106994;1288;123884;-85
2023/03/24 20:17:04;;;;;;;;;;;;;;;12.80;75.77;97339.03;106452;1278;26826;-85
2023/03/24 20:24:02;;;;;;;;;;;;;;;12.74;76.04;97331.16;105077;1311;22690;-83
2023/03/24 20:27:36;;;;;;;;;;;;;;;12.70;76.03;97333.21;105105;1287;123964;-84
2023/03/24 20:30:31;;;;;;;;;;;;;;;;;;;;;
2023/03/24 20:33:59;;;;;;;;;;;;;;;12.65;76.30;97340.52;104756;1316;22555;-88
2023/03/24 20:37:51;;;;;;;;;;;;;;;12.62;76.34;97345.36;104119;1305;124238;-85
2023/03/24 20:41:18;;;;;;;;;;;;;;;12.60;76.26;97342.96;105393;1315;22702;-85
2023/03/24 20:44:36;;;;;;;;;;;;;;;12.58;76.61;97344.46;103467;1329;124195;-85
2023/03/24 20:47:40;;;;;;;;;;;;;;;12.56;76.55;97341.80;103840;1307;22628;-86
2023/03/24 20:51:32;;;;;;;;;;;;;;;12.54;76.83;97347.55;103580;1326;124629;-85
2023/03/24 20:55:05;;;;;;;;;;;;;;;12.50;76.88;97356.27;103096;1333;24279;-85
2023/03/24 21:13:07;;;;;;;;;;;;;;;12.44;77.41;97375.70;104518;1315;22562;-84
2023/03/24 21:16:36;;;;;;;;;;;;;;;12.42;77.78;97371.06;100091;1324;5499063;-84
2023/03/24 21:27:20;;;;;;;;;;;;;;;12.37;77.69;97378.90;103980;1307;546203;-84
2023/03/24 21:45:07;;;;;;;;;;;;;;;12.24;77.50;97353.23;103415;1331;124706;-88
2023/03/24 21:49:36;;;;;;;;;;;;;;;12.24;77.68;97355.68;104069;1319;545510;-87
2023/03/24 21:52:45;;;;;;;;;;;;;;;12.19;77.43;97354.02;107106;1297;24227;-85
2023/03/24 22:03:37;;;;;;;;;;;;;;;12.11;77.64;97355.92;101246;1309;5467567;-85
2023/03/24 22:10:24;;;;;;;;;;;;;;;;;;;;;
2023/03/24 22:14:04;;;;;;;;;;;;;;;12.03;77.96;97365.52;103964;1324;22565;-84
2023/03/24 22:17:32;;;;;;;;;;;;;;;12.00;78.21;97364.98;103414;1326;24492;-84
2023/03/24 22:24:24;;;;;;;;;;;;;;;11.97;78.54;97357.98;104204;1297;547144;-86
2023/03/24 22:28:17;;;;;;;;;;;;;;;11.94;78.48;97358.42;105711;1301;124475;-83
2023/03/24 22:31:08;;;;;;;;;;;;;;;;;;;;;
2023/03/24 22:34:54;;;;;;;;;;;;;;;11.91;78.70;97355.65;105959;1286;24281;-84
2023/03/24 22:37:59;;;;;;;;;;;;;;;;;;;;;
2023/03/24 22:41:09;;;;;;;;;;;;;;;11.90;78.57;97350.58;106049;1293;23189;-84
2023/03/24 22:44:48;;;;;;;;;;;;;;;;;;;;;
2023/03/24 22:47:57;;;;;;;;;;;;;;;;;;;;;
2023/03/24 22:51:19;;;;;;;;;;;;;;;;;;;;;
2023/03/24 22:55:18;;;;;;;;;;;;;;;11.84;78.56;97340.93;104592;1295;22697;-84
2023/03/24 22:58:12;;;;;;;;;;;;;;;;;;;;;
2023/03/24 23:01:25;;;;;;;;;;;;;;;;;;;;;
2023/03/24 23:04:56;;;;;;;;;;;;;;;;;;;;;
2023/03/24 23:08:37;;;;;;;;;;;;;;;11.69;78.46;97325.84;104288;1322;123099;-86
2023/03/24 23:15:30;;;;;;;;;;;;;;;11.59;78.74;97326.16;104862;1310;124237;-85
2023/03/24 23:18:28;;;;;;;;;;;;;;;;;;;;;
2023/03/24 23:26:23;;;;;;;;;;;;;;;11.51;79.20;97326.90;104139;1303;544313;-87
2023/03/24 23:33:22;;;;;;;;;;;;;;;11.38;79.30;97326.25;105342;1312;124184;-84
2023/03/24 23:36:49;;;;;;;;;;;;;;;11.32;79.71;97323.31;104591;1302;22703;-85
2023/03/24 23:47:48;;;;;;;;;;;;;;;11.17;80.13;97313.27;103992;1304;544520;-84
2023/03/24 23:51:16;;;;;;;;;;;;;;;11.09;80.29;97308.52;105954;1300;123972;-83
2023/03/24 23:57:58;;;;;;;;;;;;;;;;;;;;;
